Time;durP1;ratioP1;P1;durP2;ratioP2;P2;SDS_P1;SDS_P2;PMS_P1;PMS_P2;Temp;Humidity;BMP_temperature;BMP_pressure;BME280_temperature;BME280_humidity;BME280_pressure;Samples;Min_cycle;Max_cycle;Signal;HPM_P1;HPM_P2
2022/03/30 00:01:05;;;;;;;21.45;18.55;;;8.60;99.90;;;;;;5028742;28;20153;-59
2022/03/30 00:03:32;;;;;;;23.48;18.80;;;8.60;99.90;;;;;;5034037;28;20533;-60
2022/03/30 00:05:59;;;;;;;21.48;17.83;;;8.60;99.90;;;;;;5034596;28;20057;-60
2022/03/30 00:08:26;;;;;;;22.80;18.85;;;8.70;99.90;;;;;;5031768;28;20133;-60
2022/03/30 00:10:53;;;;;;;20.95;17.55;;;8.70;99.90;;;;;;5035239;28;20109;-60
2022/03/30 00:13:20;;;;;;;26.23;20.45;;;8.70;99.90;;;;;;5035983;28;20041;-60
2022/03/30 00:15:46;;;;;;;29.00;21.40;;;8.60;99.90;;;;;;5033680;28;20583;-60
2022/03/30 00:18:13;;;;;;;25.38;20.17;;;8.60;99.90;;;;;;5030055;28;20121;-60
2022/03/30 00:20:40;;;;;;;25.17;19.67;;;8.60;99.90;;;;;;5028679;28;20136;-60
2022/03/30 00:23:07;;;;;;;23.52;19.50;;;8.60;99.90;;;;;;5026571;28;20127;-60
2022/03/30 00:25:35;;;;;;;23.65;19.70;;;8.60;99.90;;;;;;5026928;28;20165;-60
2022/03/30 00:28:02;;;;;;;22.90;17.98;;;8.60;99.90;;;;;;5032834;28;20129;-60
2022/03/30 00:30:29;;;;;;;22.67;18.60;;;8.70;99.90;;;;;;5029973;28;20091;-60
2022/03/30 00:32:56;;;;;;;25.63;19.13;;;8.60;99.90;;;;;;5026345;28;20495;-60
2022/03/30 00:35:22;;;;;;;25.38;20.88;;;8.70;99.90;;;;;;5028390;28;20472;-60
2022/03/30 00:37:49;;;;;;;24.23;20.58;;;8.60;99.90;;;;;;5028317;28;20056;-60
2022/03/30 00:40:16;;;;;;;26.15;20.63;;;8.60;99.90;;;;;;5032669;28;20188;-60
2022/03/30 00:42:43;;;;;;;24.70;20.70;;;8.60;99.90;;;;;;5033618;28;20068;-59
2022/03/30 00:45:12;;;;;;;28.85;22.63;;;8.60;99.90;;;;;;5014484;28;20511;-60
2022/03/30 00:47:40;;;;;;;28.17;22.75;;;8.60;99.90;;;;;;5026028;28;20113;-60
2022/03/30 00:50:08;;;;;;;27.90;22.98;;;8.60;99.90;;;;;;5025833;28;20128;-60
2022/03/30 00:52:35;;;;;;;28.48;22.23;;;8.60;99.90;;;;;;5035966;28;20416;-60
2022/03/30 00:55:03;;;;;;;31.20;25.13;;;8.50;99.90;;;;;;5025204;28;20077;-60
2022/03/30 00:57:30;;;;;;;29.95;23.77;;;8.50;99.90;;;;;;5028763;28;20359;-60
2022/03/30 00:59:57;;;;;;;32.13;25.55;;;8.50;99.90;;;;;;5028139;28;20400;-61
2022/03/30 01:02:24;;;;;;;32.75;24.23;;;8.50;99.90;;;;;;5027478;28;20280;-60
2022/03/30 01:04:51;;;;;;;28.52;23.88;;;8.50;99.90;;;;;;5030670;28;20053;-60
2022/03/30 01:07:18;;;;;;;28.50;23.38;;;8.50;99.90;;;;;;5034867;28;20124;-59
2022/03/30 01:09:45;;;;;;;30.65;24.77;;;8.50;99.90;;;;;;5034778;28;20060;-60
2022/03/30 01:12:12;;;;;;;32.35;26.50;;;8.50;99.90;;;;;;5036216;28;20478;-60
2022/03/30 01:14:43;;;;;;;31.40;25.13;;;8.40;99.90;;;;;;5015315;28;20053;-60
2022/03/30 01:17:10;;;;;;;30.77;24.88;;;8.40;99.90;;;;;;5028471;28;20569;-58
2022/03/30 01:19:37;;;;;;;38.97;27.77;;;8.40;99.90;;;;;;5030175;28;20163;-59
2022/03/30 01:22:06;;;;;;;36.65;28.63;;;8.40;99.90;;;;;;5009744;28;20136;-60
2022/03/30 01:24:33;;;;;;;32.28;26.20;;;8.30;99.90;;;;;;5032278;28;20049;-60
2022/03/30 01:26:59;;;;;;;30.35;24.63;;;8.30;99.90;;;;;;5033937;28;20438;-60
2022/03/30 01:32:28;;;;;;;30.20;22.67;;;8.30;99.90;;;;;;5025884;28;20088;-60
2022/03/30 01:35:03;;;;;;;26.67;23.17;;;8.30;99.90;;;;;;5031048;28;20046;-59
2022/03/30 01:37:30;;;;;;;33.00;25.48;;;8.30;99.90;;;;;;5038764;28;20121;-59
2022/03/30 01:39:58;;;;;;;32.05;23.95;;;8.20;99.90;;;;;;5033016;28;20128;-59
2022/03/30 01:42:25;;;;;;;28.08;22.13;;;8.20;99.90;;;;;;5032552;28;20378;-59
2022/03/30 01:44:52;;;;;;;27.00;22.20;;;8.30;99.90;;;;;;5036335;28;20496;-59
2022/03/30 01:47:19;;;;;;;26.25;21.70;;;8.30;99.90;;;;;;5037438;28;20128;-59
2022/03/30 01:49:46;;;;;;;25.13;20.08;;;8.20;99.90;;;;;;5036128;28;20063;-59
2022/03/30 01:52:15;;;;;;;25.35;21.05;;;8.30;99.90;;;;;;5037167;28;20120;-59
2022/03/30 01:54:42;;;;;;;25.95;20.73;;;8.30;99.90;;;;;;5036990;28;21189;-59
2022/03/30 01:57:12;;;;;;;24.98;20.30;;;8.20;99.90;;;;;;5037166;28;20154;-59
2022/03/30 01:59:43;;;;;;;24.33;19.35;;;8.30;99.90;;;;;;5028311;28;20128;-59
2022/03/30 02:02:11;;;;;;;23.67;19.80;;;8.20;99.90;;;;;;5027558;28;20165;-59
2022/03/30 02:04:38;;;;;;;25.05;20.10;;;8.20;99.90;;;;;;5027784;28;20112;-59
2022/03/30 02:07:06;;;;;;;24.30;19.17;;;8.20;99.90;;;;;;5029356;28;20041;-59
2022/03/30 02:09:32;;;;;;;22.83;18.40;;;8.20;99.90;;;;;;5028797;28;20084;-60
2022/03/30 02:11:59;;;;;;;24.45;19.63;;;8.20;99.90;;;;;;5029146;28;20136;-59
2022/03/30 02:14:27;;;;;;;22.65;18.90;;;8.20;99.90;;;;;;5032925;28;20590;-59
2022/03/30 02:16:54;;;;;;;26.15;20.75;;;8.10;99.90;;;;;;5035578;28;20096;-59
2022/03/30 02:19:20;;;;;;;24.55;19.77;;;8.10;99.90;;;;;;5028285;28;20037;-59
2022/03/30 02:21:47;;;;;;;23.10;19.83;;;8.10;99.90;;;;;;5033184;28;20476;-59
2022/03/30 02:24:14;;;;;;;24.85;19.20;;;8.10;99.90;;;;;;5036714;28;20407;-60
2022/03/30 02:26:41;;;;;;;21.50;18.30;;;8.20;99.90;;;;;;5037108;28;20499;-59
2022/03/30 02:29:07;;;;;;;24.20;18.13;;;8.10;99.90;;;;;;5037926;28;20088;-59
2022/03/30 02:31:34;;;;;;;22.50;18.38;;;8.10;99.90;;;;;;5029438;28;20120;-60
2022/03/30 02:34:01;;;;;;;23.38;19.00;;;8.10;99.90;;;;;;5028365;28;20060;-59
2022/03/30 02:36:28;;;;;;;26.45;20.55;;;8.10;99.90;;;;;;5030351;28;20364;-59
2022/03/30 02:38:55;;;;;;;27.08;21.17;;;8.10;99.90;;;;;;5027153;28;20103;-60
2022/03/30 02:41:22;;;;;;;22.20;19.88;;;8.10;99.90;;;;;;5029471;28;20550;-59
2022/03/30 02:43:49;;;;;;;23.65;19.33;;;8.10;99.90;;;;;;5031364;28;20087;-59
2022/03/30 02:46:16;;;;;;;21.77;17.42;;;8.10;99.90;;;;;;5036258;28;20080;-59
2022/03/30 02:48:43;;;;;;;21.13;17.60;;;8.10;99.90;;;;;;5035490;28;20148;-59
2022/03/30 02:51:10;;;;;;;22.30;17.02;;;8.10;99.90;;;;;;5037088;28;20140;-59
2022/03/30 02:53:36;;;;;;;23.15;18.13;;;8.10;99.90;;;;;;5035423;28;20440;-59
2022/03/30 02:56:04;;;;;;;20.83;17.75;;;8.10;99.90;;;;;;5012039;28;20338;-59
2022/03/30 02:58:31;;;;;;;25.83;18.77;;;8.10;99.90;;;;;;5012733;28;20056;-59
2022/03/30 03:00:58;;;;;;;24.98;18.73;;;8.10;99.90;;;;;;5028174;28;20362;-59
2022/03/30 03:03:25;;;;;;;24.75;19.80;;;8.10;99.90;;;;;;5025412;28;20465;-59
2022/03/30 03:05:52;;;;;;;22.15;18.67;;;8.10;99.90;;;;;;5029421;28;20178;-59
2022/03/30 03:08:18;;;;;;;23.70;19.65;;;8.00;99.90;;;;;;5029562;28;20053;-59
2022/03/30 03:10:47;;;;;;;23.10;17.58;;;8.10;99.90;;;;;;5029701;28;20077;-60
2022/03/30 03:13:16;;;;;;;27.00;19.85;;;8.00;99.90;;;;;;5034826;28;20080;-60
2022/03/30 03:15:44;;;;;;;26.35;20.02;;;8.00;99.90;;;;;;5025283;28;20452;-59
2022/03/30 03:18:16;;;;;;;;;;;8.00;99.90;;;;;;5025200;28;20045;-59
2022/03/30 03:20:44;;;;;;;24.17;17.85;;;8.00;99.90;;;;;;5030372;28;20322;-59
2022/03/30 03:23:11;;;;;;;23.08;17.40;;;8.00;99.90;;;;;;5036595;28;20081;-59
2022/03/30 03:25:39;;;;;;;21.30;16.80;;;8.00;99.90;;;;;;5033624;28;20140;-59
2022/03/30 03:28:10;;;;;;;23.27;18.85;;;8.10;99.90;;;;;;5033871;28;20132;-59
2022/03/30 03:30:37;;;;;;;24.75;19.00;;;8.10;99.90;;;;;;5031362;28;20120;-59
2022/03/30 03:33:05;;;;;;;22.75;18.70;;;8.10;99.90;;;;;;5038411;28;20060;-59
2022/03/30 03:35:32;;;;;;;23.70;19.45;;;8.10;99.90;;;;;;5040033;28;20046;-59
2022/03/30 03:37:59;;;;;;;22.95;18.42;;;8.10;99.90;;;;;;5031343;28;20089;-59
2022/03/30 03:40:27;;;;;;;23.65;18.75;;;8.10;99.90;;;;;;5033712;28;20129;-59
2022/03/30 03:42:53;;;;;;;24.15;19.00;;;8.10;99.90;;;;;;5033197;28;20049;-59
2022/03/30 03:45:20;;;;;;;21.45;18.08;;;8.00;99.90;;;;;;5030689;28;20154;-59
2022/03/30 03:47:48;;;;;;;24.60;20.42;;;8.10;99.90;;;;;;5032237;28;20047;-59
2022/03/30 03:50:15;;;;;;;26.15;20.40;;;8.00;99.90;;;;;;5032981;28;20045;-60
2022/03/30 03:52:42;;;;;;;23.60;19.98;;;8.00;99.90;;;;;;5014534;28;20175;-60
2022/03/30 03:55:09;;;;;;;24.17;20.73;;;8.00;99.90;;;;;;5033106;28;20083;-59
2022/03/30 03:57:38;;;;;;;25.65;20.10;;;8.00;99.90;;;;;;5032704;28;20133;-60
2022/03/30 04:00:05;;;;;;;23.70;19.98;;;8.00;99.90;;;;;;5032155;28;20127;-60
2022/03/30 04:02:32;;;;;;;23.73;18.77;;;8.00;99.90;;;;;;5037779;28;20464;-60
2022/03/30 04:04:59;;;;;;;27.60;21.23;;;8.00;99.90;;;;;;5033708;28;20148;-59
2022/03/30 04:07:26;;;;;;;24.90;20.58;;;8.00;99.90;;;;;;5033807;28;20069;-59
2022/03/30 04:09:53;;;;;;;24.75;21.13;;;7.90;99.90;;;;;;5030763;28;20073;-59
2022/03/30 04:12:19;;;;;;;23.73;21.08;;;7.90;99.90;;;;;;5031481;28;20143;-59
2022/03/30 04:14:46;;;;;;;25.42;20.48;;;7.90;99.90;;;;;;5032298;28;20500;-59
2022/03/30 04:17:13;;;;;;;20.35;17.40;;;7.90;99.90;;;;;;5032509;28;20145;-59
2022/03/30 04:19:39;;;;;;;19.67;16.85;;;8.00;99.90;;;;;;5031561;28;20152;-60
2022/03/30 04:22:06;;;;;;;22.00;18.00;;;8.00;99.90;;;;;;5029809;28;20424;-59
2022/03/30 04:24:33;;;;;;;22.83;18.13;;;8.00;99.90;;;;;;5036308;28;20049;-60
2022/03/30 04:27:00;;;;;;;19.67;16.40;;;8.00;99.90;;;;;;5031674;28;20494;-59
2022/03/30 04:29:26;;;;;;;21.80;17.35;;;8.10;99.90;;;;;;5032248;28;20259;-59
2022/03/30 04:31:53;;;;;;;18.85;16.55;;;8.00;99.90;;;;;;5031304;28;20103;-60
2022/03/30 04:34:20;;;;;;;19.00;14.75;;;8.00;99.90;;;;;;5027999;28;20144;-60
2022/03/30 04:36:47;;;;;;;17.55;14.93;;;8.10;99.90;;;;;;5032055;28;20564;-60
2022/03/30 04:39:13;;;;;;;20.65;16.73;;;8.20;99.90;;;;;;5038918;28;20115;-60
2022/03/30 04:41:40;;;;;;;23.33;16.67;;;8.10;99.90;;;;;;5036635;28;20132;-60
2022/03/30 04:44:07;;;;;;;19.25;16.35;;;8.10;99.90;;;;;;5036420;28;20429;-60
2022/03/30 04:46:34;;;;;;;20.52;17.48;;;8.10;99.90;;;;;;5031279;28;20167;-60
2022/03/30 04:49:01;;;;;;;19.38;16.27;;;8.10;99.90;;;;;;5023948;28;20461;-60
2022/03/30 04:51:29;;;;;;;16.67;14.88;;;8.10;99.90;;;;;;5012399;28;20438;-60
2022/03/30 04:53:56;;;;;;;17.15;15.32;;;8.20;99.90;;;;;;5032651;28;20080;-60
2022/03/30 04:56:23;;;;;;;18.73;14.85;;;8.20;99.90;;;;;;5030286;28;20088;-60
2022/03/30 04:58:50;;;;;;;21.77;15.35;;;8.20;99.90;;;;;;5030626;28;20148;-60
2022/03/30 05:01:17;;;;;;;18.65;14.32;;;8.20;99.90;;;;;;5032208;28;20641;-60
2022/03/30 05:03:44;;;;;;;16.08;13.95;;;8.20;99.90;;;;;;5009025;28;20049;-60
2022/03/30 05:06:11;;;;;;;17.55;14.02;;;8.20;99.90;;;;;;5028440;28;20096;-60
2022/03/30 05:08:38;;;;;;;19.48;15.05;;;8.20;99.90;;;;;;5027973;28;20140;-61
2022/03/30 05:11:04;;;;;;;17.33;14.68;;;8.30;99.90;;;;;;5026750;28;20137;-60
2022/03/30 05:13:31;;;;;;;16.73;14.43;;;8.20;99.90;;;;;;5026682;28;20128;-60
2022/03/30 05:15:58;;;;;;;16.83;13.15;;;8.20;99.90;;;;;;5024831;28;20515;-60
2022/03/30 05:18:25;;;;;;;18.58;14.60;;;8.30;99.90;;;;;;5034675;28;20128;-59
2022/03/30 05:20:53;;;;;;;17.60;14.55;;;8.30;99.90;;;;;;5030098;28;20053;-60
2022/03/30 05:23:20;;;;;;;19.23;16.05;;;8.20;99.90;;;;;;5030369;28;20523;-59
2022/03/30 05:25:47;;;;;;;16.67;14.93;;;8.20;99.90;;;;;;5033625;28;20409;-59
2022/03/30 05:28:14;;;;;;;22.73;16.38;;;8.20;99.90;;;;;;5028345;28;20058;-59
2022/03/30 05:30:41;;;;;;;17.98;15.98;;;8.20;99.90;;;;;;5025466;28;20607;-59
2022/03/30 05:33:08;;;;;;;18.40;15.40;;;8.20;99.90;;;;;;5022624;28;20052;-59
2022/03/30 05:35:35;;;;;;;21.38;15.93;;;8.20;99.90;;;;;;5026970;28;20073;-60
2022/03/30 05:38:02;;;;;;;19.70;16.05;;;8.20;99.90;;;;;;5029510;28;20140;-59
2022/03/30 05:40:28;;;;;;;23.25;18.73;;;8.20;99.90;;;;;;5024212;28;20451;-60
2022/03/30 05:42:55;;;;;;;19.02;15.80;;;8.20;99.90;;;;;;5018589;28;20124;-59
2022/03/30 05:45:22;;;;;;;21.15;17.35;;;8.10;99.90;;;;;;5022412;28;20112;-59
2022/03/30 05:47:49;;;;;;;23.50;18.38;;;8.10;99.90;;;;;;5029161;28;20141;-60
2022/03/30 05:50:16;;;;;;;22.83;18.20;;;8.00;99.90;;;;;;5027967;28;20160;-60
2022/03/30 05:52:42;;;;;;;25.88;20.20;;;8.00;99.90;;;;;;5027183;28;20168;-60
2022/03/30 05:55:09;;;;;;;24.40;20.35;;;8.00;99.90;;;;;;5017613;28;20513;-60
2022/03/30 05:57:36;;;;;;;28.80;21.95;;;7.90;99.90;;;;;;5005515;28;20069;-60
2022/03/30 06:00:05;;;;;;;28.33;21.85;;;8.00;99.90;;;;;;5012585;28;20107;-59
2022/03/30 06:02:32;;;;;;;25.05;19.70;;;7.90;99.90;;;;;;5009889;28;20069;-61
2022/03/30 06:04:58;;;;;;;22.15;19.00;;;7.90;99.90;;;;;;5004089;28;20085;-60
2022/03/30 06:07:25;;;;;;;21.90;18.75;;;7.90;99.90;;;;;;5005225;28;20049;-61
2022/03/30 06:09:52;;;;;;;23.15;18.70;;;8.00;99.90;;;;;;5009516;28;20049;-61
2022/03/30 06:12:19;;;;;;;21.75;17.75;;;8.10;99.90;;;;;;5006940;28;20128;-58
2022/03/30 06:14:46;;;;;;;21.60;18.08;;;8.10;99.90;;;;;;5012237;28;20132;-59
2022/03/30 06:17:12;;;;;;;20.50;16.90;;;8.10;99.90;;;;;;5010165;28;20127;-58
2022/03/30 06:19:39;;;;;;;20.85;18.02;;;8.10;99.90;;;;;;4997097;28;20133;-58
2022/03/30 06:22:08;;;;;;;22.63;17.58;;;8.10;99.90;;;;;;4999517;28;20133;-58
2022/03/30 06:24:36;;;;;;;25.05;20.10;;;8.10;99.90;;;;;;5011223;28;20060;-58
2022/03/30 06:27:04;;;;;;;23.25;19.33;;;8.10;99.90;;;;;;5003811;28;20049;-59
2022/03/30 06:29:32;;;;;;;24.25;19.75;;;8.10;99.90;;;;;;5009919;28;20428;-58
2022/03/30 06:31:59;;;;;;;28.92;21.27;;;8.10;99.90;;;;;;4999392;28;20081;-58
2022/03/30 06:34:27;;;;;;;22.77;19.27;;;8.00;99.90;;;;;;5016280;28;20350;-58
2022/03/30 06:36:53;;;;;;;22.73;19.55;;;8.10;99.90;;;;;;5014160;28;20046;-59
2022/03/30 06:39:20;;;;;;;21.05;17.98;;;8.10;99.90;;;;;;5009985;28;20152;-59
2022/03/30 06:41:48;;;;;;;25.27;19.23;;;8.10;99.90;;;;;;5017239;28;20049;-58
2022/03/30 06:44:16;;;;;;;21.48;18.52;;;8.10;99.90;;;;;;5011607;28;20085;-58
2022/03/30 06:46:43;;;;;;;22.80;18.60;;;8.10;99.90;;;;;;5004567;28;20054;-59
2022/03/30 06:49:10;;;;;;;21.40;19.10;;;8.10;99.90;;;;;;5000483;28;20053;-58
2022/03/30 06:51:37;;;;;;;22.15;18.85;;;8.10;99.90;;;;;;5013562;28;20418;-59
2022/03/30 06:54:04;;;;;;;22.10;19.08;;;8.20;99.90;;;;;;5014865;28;20131;-59
2022/03/30 06:56:31;;;;;;;21.48;17.63;;;8.20;99.90;;;;;;5006463;28;20137;-58
2022/03/30 06:58:58;;;;;;;25.35;18.88;;;8.20;99.90;;;;;;5010741;28;20480;-59
2022/03/30 07:01:32;;;;;;;24.33;19.35;;;8.20;99.90;;;;;;5014173;28;20060;-57
2022/03/30 07:03:59;;;;;;;20.63;17.00;;;8.20;99.90;;;;;;5011977;28;20513;-59
2022/03/30 07:06:26;;;;;;;22.33;18.65;;;8.30;99.90;;;;;;5021005;28;20076;-59
2022/03/30 07:11:38;;;;;;;21.10;17.98;;;8.30;99.90;;;;;;5020931;28;20053;-58
2022/03/30 07:14:04;;;;;;;22.25;18.80;;;8.30;99.90;;;;;;5016577;28;20081;-58
2022/03/30 07:16:31;;;;;;;25.15;18.90;;;8.20;99.90;;;;;;5007177;28;20042;-57
2022/03/30 07:18:58;;;;;;;22.63;18.17;;;8.30;99.90;;;;;;5020598;28;20048;-59
2022/03/30 07:21:25;;;;;;;19.88;17.40;;;8.30;99.90;;;;;;5027976;28;20527;-59
2022/03/30 07:23:52;;;;;;;19.65;16.90;;;8.30;99.90;;;;;;5009933;28;20054;-59
2022/03/30 07:26:19;;;;;;;20.65;17.48;;;8.30;99.90;;;;;;4987234;28;20670;-59
2022/03/30 07:28:49;;;;;;;22.27;18.90;;;8.40;99.90;;;;;;5016174;28;20125;-59
2022/03/30 07:31:16;;;;;;;24.48;19.55;;;8.40;99.90;;;;;;5009963;28;20539;-59
2022/03/30 07:33:43;;;;;;;24.25;18.30;;;8.40;99.90;;;;;;5024269;28;20605;-59
2022/03/30 07:36:10;;;;;;;23.90;19.65;;;8.40;99.90;;;;;;5012981;28;20058;-59
2022/03/30 07:38:37;;;;;;;26.50;21.67;;;8.40;99.90;;;;;;5017013;28;20077;-59
2022/03/30 07:41:04;;;;;;;22.38;18.50;;;8.30;99.90;;;;;;5021060;28;20072;-59
2022/03/30 07:43:31;;;;;;;20.88;18.02;;;8.30;99.90;;;;;;5020675;28;20879;-59
2022/03/30 07:45:58;;;;;;;24.02;19.70;;;8.40;99.90;;;;;;5012537;28;20061;-59
2022/03/30 07:48:25;;;;;;;23.13;19.67;;;8.40;99.90;;;;;;5004795;28;20046;-59
2022/03/30 07:50:52;;;;;;;23.48;18.92;;;8.40;99.90;;;;;;5010092;28;20053;-60
2022/03/30 07:53:18;;;;;;;20.90;18.17;;;8.50;99.90;;;;;;5018918;28;20107;-58
2022/03/30 07:55:47;;;;;;;23.23;17.45;;;8.50;99.90;;;;;;5020101;28;20169;-59
2022/03/30 07:58:14;;;;;;;30.70;21.50;;;8.50;99.90;;;;;;5021158;28;20086;-59
2022/03/30 08:00:41;;;;;;;26.67;20.33;;;8.40;99.90;;;;;;5008853;28;20085;-59
2022/03/30 08:03:08;;;;;;;24.90;20.75;;;8.40;99.90;;;;;;5016636;28;20060;-59
2022/03/30 08:05:36;;;;;;;27.73;22.23;;;8.40;99.90;;;;;;5016202;28;20053;-59
2022/03/30 08:08:03;;;;;;;27.02;20.08;;;8.30;99.90;;;;;;5012497;28;20108;-59
2022/03/30 08:10:30;;;;;;;26.65;18.63;;;8.40;99.90;;;;;;5003752;28;20072;-60
2022/03/30 08:12:57;;;;;;;26.00;19.65;;;8.40;99.90;;;;;;5009964;28;20057;-59
2022/03/30 08:15:24;;;;;;;25.13;19.40;;;8.40;99.90;;;;;;5016118;28;20053;-59
2022/03/30 08:17:52;;;;;;;29.40;21.00;;;8.40;99.90;;;;;;5033270;28;20128;-60
2022/03/30 08:23:20;;;;;;;30.75;20.17;;;8.40;99.90;;;;;;5002659;28;20038;-60
2022/03/30 08:25:47;;;;;;;26.85;20.20;;;8.40;99.90;;;;;;5013576;28;20475;-59
2022/03/30 08:28:14;;;;;;;24.20;17.48;;;8.40;99.90;;;;;;5011223;28;20513;-59
2022/03/30 08:30:41;;;;;;;26.02;19.85;;;8.40;99.90;;;;;;5018698;28;20188;-59
2022/03/30 08:33:08;;;;;;;22.08;17.92;;;8.40;99.90;;;;;;5018954;28;20104;-59
2022/03/30 08:35:35;;;;;;;20.85;16.45;;;8.50;99.90;;;;;;5019540;28;20107;-59
2022/03/30 08:38:03;;;;;;;20.08;16.58;;;8.70;99.90;;;;;;5017038;28;20137;-58
2022/03/30 08:40:29;;;;;;;22.30;15.88;;;8.90;99.90;;;;;;5016702;28;20045;-59
2022/03/30 08:42:56;;;;;;;19.00;15.27;;;9.10;99.90;;;;;;5030386;28;20053;-60
2022/03/30 08:45:24;;;;;;;19.15;15.20;;;9.20;99.90;;;;;;5022163;28;20061;-60
2022/03/30 08:47:51;;;;;;;23.30;15.55;;;9.30;99.90;;;;;;5018827;28;20473;-59
2022/03/30 08:50:19;;;;;;;17.17;14.40;;;9.50;99.90;;;;;;5019765;28;20312;-60
2022/03/30 08:52:49;;;;;;;18.98;14.57;;;9.60;99.90;;;;;;5018026;28;20053;-59
2022/03/30 08:55:16;;;;;;;19.27;15.70;;;9.80;99.90;;;;;;5017809;28;20045;-59
2022/03/30 08:57:43;;;;;;;17.27;14.93;;;9.90;99.90;;;;;;5033964;28;20143;-60
2022/03/30 09:00:20;;;;;;;18.45;16.10;;;10.10;99.90;;;;;;5016308;28;20236;-60
2022/03/30 09:03:01;;;;;;;22.63;17.40;;;10.10;99.90;;;;;;5016892;28;20156;-59
2022/03/30 09:05:33;;;;;;;20.92;17.77;;;10.10;99.90;;;;;;5002261;28;20374;-59
2022/03/30 09:08:10;;;;;;;20.67;16.63;;;10.10;99.90;;;;;;5034747;28;20049;-60
2022/03/30 09:10:37;;;;;;;21.20;17.33;;;10.20;99.90;;;;;;5025387;28;20475;-60
2022/03/30 09:13:04;;;;;;;24.08;17.63;;;10.20;99.90;;;;;;5029981;28;20080;-60
2022/03/30 09:15:32;;;;;;;21.98;17.95;;;10.20;99.90;;;;;;5019367;28;20136;-59
2022/03/30 09:18:00;;;;;;;20.40;17.50;;;10.20;99.90;;;;;;5017718;28;20407;-59
2022/03/30 09:20:35;;;;;;;22.38;16.98;;;10.40;99.90;;;;;;5019005;28;20084;-60
2022/03/30 09:23:04;;;;;;;18.17;16.25;;;10.50;99.90;;;;;;5027763;28;20049;-60
2022/03/30 09:25:49;;;;;;;21.33;18.05;;;10.60;99.90;;;;;;5021676;28;20057;-59
2022/03/30 09:28:20;;;;;;;22.73;18.45;;;10.60;99.90;;;;;;5018719;28;20399;-59
2022/03/30 09:30:47;;;;;;;25.17;19.75;;;10.50;99.90;;;;;;5016836;28;20168;-60
2022/03/30 09:33:16;;;;;;;24.77;20.05;;;10.40;99.90;;;;;;5018352;28;20152;-60
2022/03/30 09:35:43;;;;;;;21.88;18.90;;;10.30;99.90;;;;;;4997465;28;20252;-60
2022/03/30 09:38:12;;;;;;;19.00;16.38;;;10.30;99.90;;;;;;5000324;28;20065;-59
2022/03/30 09:40:54;;;;;;;18.92;17.00;;;10.50;99.90;;;;;;5018843;28;20080;-60
2022/03/30 09:43:34;;;;;;;18.95;15.40;;;10.60;99.90;;;;;;5017869;28;20171;-60
2022/03/30 09:46:13;;;;;;;22.48;19.02;;;10.80;99.90;;;;;;5018582;28;20053;-60
2022/03/30 09:48:49;;;;;;;22.65;18.27;;;10.80;99.90;;;;;;5026955;28;20206;-60
2022/03/30 09:51:17;;;;;;;20.08;17.90;;;10.90;99.90;;;;;;5011425;28;20045;-60
2022/03/30 09:53:45;;;;;;;23.02;16.70;;;11.10;99.90;;;;;;5023186;28;20073;-60
2022/03/30 09:56:16;;;;;;;18.50;16.58;;;11.20;99.90;;;;;;5024188;28;20118;-60
2022/03/30 09:58:43;;;;;;;18.88;16.75;;;11.40;99.90;;;;;;5038783;28;20129;-60
2022/03/30 10:01:17;;;;;;;20.17;15.05;;;11.50;99.90;;;;;;5023338;28;20049;-60
2022/03/30 10:03:51;;;;;;;21.77;18.63;;;11.70;99.90;;;;;;5014990;28;20050;-60
2022/03/30 10:06:19;;;;;;;20.08;17.63;;;11.70;99.90;;;;;;5010877;28;20484;-60
2022/03/30 10:08:47;;;;;;;19.50;17.20;;;11.80;99.90;;;;;;5013114;28;20049;-60
2022/03/30 10:11:17;;;;;;;21.15;18.63;;;12.00;99.90;;;;;;5008237;28;20050;-60
2022/03/30 10:13:46;;;;;;;19.40;17.08;;;12.10;99.90;;;;;;5017838;28;20052;-60
2022/03/30 10:16:32;;;;;;;18.95;16.40;;;12.10;99.90;;;;;;5011480;28;20046;-60
2022/03/30 10:18:59;;;;;;;20.92;16.35;;;12.20;99.90;;;;;;5009585;28;20288;-60
2022/03/30 10:21:30;;;;;;;19.67;16.25;;;12.20;99.90;;;;;;5017126;28;20076;-60
2022/03/30 10:24:28;;;;;;;18.77;16.05;;;12.50;99.90;;;;;;4990679;28;20085;-60
2022/03/30 10:27:03;;;;;;;16.70;15.00;;;12.80;99.90;;;;;;5000415;28;20085;-60
2022/03/30 10:29:31;;;;;;;15.98;14.35;;;12.90;99.90;;;;;;5023230;28;20073;-60
2022/03/30 10:32:14;;;;;;;17.20;15.40;;;13.10;99.90;;;;;;5019797;28;20176;-61
2022/03/30 10:34:48;;;;;;;15.45;13.82;;;13.40;99.90;;;;;;5031532;28;20104;-60
2022/03/30 10:37:15;;;;;;;16.30;14.52;;;13.60;99.90;;;;;;5011700;28;20077;-60
2022/03/30 10:39:56;;;;;;;18.77;16.80;;;13.80;99.90;;;;;;5006354;28;20161;-60
2022/03/30 10:42:26;;;;;;;18.55;15.95;;;13.90;99.90;;;;;;5040254;28;20105;-60
2022/03/30 10:44:57;;;;;;;18.70;16.70;;;14.00;99.90;;;;;;5033439;28;20056;-61
2022/03/30 10:47:26;;;;;;;18.95;16.60;;;14.10;99.90;;;;;;5023992;28;20057;-61
2022/03/30 10:49:54;;;;;;;18.75;16.83;;;14.20;99.90;;;;;;5022742;28;20541;-61
2022/03/30 10:52:27;;;;;;;22.75;18.58;;;14.30;99.90;;;;;;5024289;28;20145;-61
2022/03/30 10:55:12;;;;;;;20.67;17.02;;;14.00;99.90;;;;;;5024117;28;20164;-61
2022/03/30 10:57:49;;;;;;;20.65;16.60;;;13.80;99.90;;;;;;5003808;28;20095;-58
2022/03/30 11:00:29;;;;;;;19.30;16.77;;;13.90;99.90;;;;;;5022611;28;20096;-60
2022/03/30 11:03:16;;;;;;;20.92;18.40;;;13.90;99.90;;;;;;5021410;28;20211;-61
2022/03/30 11:05:45;;;;;;;17.50;15.63;;;13.70;99.90;;;;;;5025360;28;20053;-59
2022/03/30 11:08:33;;;;;;;16.70;14.95;;;13.80;99.90;;;;;;5042711;28;20084;-60
2022/03/30 11:11:01;;;;;;;21.33;15.68;;;14.00;99.90;;;;;;5014647;28;20489;-60
2022/03/30 11:13:28;;;;;;;16.90;15.10;;;14.20;99.90;;;;;;5019973;28;20183;-60
2022/03/30 11:15:59;;;;;;;18.27;16.15;;;14.20;99.90;;;;;;5019996;28;20053;-59
2022/03/30 11:18:27;;;;;;;19.10;16.08;;;14.10;99.90;;;;;;5021470;28;20428;-60
2022/03/30 11:21:08;;;;;;;17.58;15.43;;;14.30;99.90;;;;;;5012387;28;20158;-60
2022/03/30 11:23:36;;;;;;;16.13;14.15;;;14.40;99.90;;;;;;5016800;28;20050;-60
2022/03/30 11:26:03;;;;;;;17.45;15.27;;;14.40;99.90;;;;;;5017993;28;20061;-60
2022/03/30 11:28:35;;;;;;;18.23;16.38;;;14.30;99.90;;;;;;5022155;28;20049;-60
2022/03/30 11:31:05;;;;;;;17.38;15.63;;;14.10;99.90;;;;;;5009797;28;20089;-60
2022/03/30 11:33:35;;;;;;;18.52;16.58;;;14.10;99.90;;;;;;5021178;28;20128;-60
2022/03/30 11:36:02;;;;;;;17.92;16.02;;;13.90;99.90;;;;;;5025000;28;20072;-60
2022/03/30 11:38:37;;;;;;;17.92;16.02;;;13.90;99.90;;;;;;5012110;28;20232;-60
2022/03/30 11:41:06;;;;;;;17.42;15.07;;;13.90;99.90;;;;;;5008872;28;20049;-60
2022/03/30 11:46:30;;;;;;;19.05;16.67;;;13.90;99.90;;;;;;5019216;28;20069;-60
2022/03/30 11:49:01;;;;;;;18.27;16.23;;;13.70;99.90;;;;;;5032335;28;20156;-60
2022/03/30 11:51:28;;;;;;;18.42;15.95;;;13.70;99.90;;;;;;5025705;28;20377;-60
2022/03/30 11:54:14;;;;;;;19.75;16.60;;;13.70;99.90;;;;;;5020831;28;20136;-60
2022/03/30 11:56:40;;;;;;;18.08;16.00;;;13.70;99.90;;;;;;5002670;28;20065;-60
2022/03/30 11:59:07;;;;;;;19.23;16.35;;;13.80;99.90;;;;;;5014202;28;20520;-60
2022/03/30 12:01:41;;;;;;;18.67;16.08;;;14.00;99.90;;;;;;5024004;28;20057;-60
2022/03/30 12:04:08;;;;;;;20.73;18.38;;;14.20;99.90;;;;;;5021816;28;20135;-61
2022/03/30 12:06:35;;;;;;;17.88;15.93;;;14.20;99.90;;;;;;5024878;28;20049;-60
2022/03/30 12:09:02;;;;;;;17.63;15.60;;;14.30;99.90;;;;;;5025612;28;20049;-60
2022/03/30 12:11:30;;;;;;;18.10;15.75;;;14.50;99.90;;;;;;5026439;28;20485;-60
2022/03/30 12:13:57;;;;;;;18.60;16.63;;;14.50;99.90;;;;;;5027056;28;20053;-60
2022/03/30 12:16:25;;;;;;;19.67;16.67;;;14.40;99.90;;;;;;5026708;28;20095;-60
2022/03/30 12:18:56;;;;;;;21.55;18.98;;;14.50;99.90;;;;;;5025978;28;20094;-60
2022/03/30 12:21:24;;;;;;;20.67;18.65;;;14.30;99.90;;;;;;5026980;28;20138;-60
2022/03/30 12:24:02;;;;;;;20.05;17.88;;;14.30;99.90;;;;;;5024418;28;20396;-60
2022/03/30 12:26:44;;;;;;;17.33;15.45;;;14.60;99.90;;;;;;5023118;28;20105;-60
2022/03/30 12:29:14;;;;;;;17.73;15.93;;;14.90;99.90;;;;;;5025279;28;20388;-60
2022/03/30 12:31:47;;;;;;;16.52;14.73;;;15.10;99.90;;;;;;5025690;28;20065;-60
2022/03/30 12:34:17;;;;;;;15.60;13.95;;;15.50;99.90;;;;;;4991106;28;20158;-61
2022/03/30 12:36:44;;;;;;;16.95;14.88;;;15.80;99.90;;;;;;5009333;28;20046;-61
2022/03/30 12:39:25;;;;;;;20.05;18.05;;;15.50;99.90;;;;;;5026607;28;20122;-60
2022/03/30 12:41:56;;;;;;;21.65;18.52;;;15.00;99.90;;;;;;5024322;28;20099;-60
2022/03/30 12:44:23;;;;;;;27.45;23.95;;;14.70;99.90;;;;;;5026235;28;20489;-60
2022/03/30 12:46:52;;;;;;;28.95;25.35;;;14.20;99.90;;;;;;5026019;28;20151;-60
2022/03/30 12:49:29;;;;;;;26.88;24.02;;;13.80;99.90;;;;;;5025271;28;20120;-61
2022/03/30 12:52:11;;;;;;;27.85;24.05;;;13.80;99.90;;;;;;5009875;28;20095;-60